Graysville, TN (37338)

11:12 AM EST on February 12, 2016 (GMT -0500)
Bakewell | | Change Station
CLOSE
Current Station
Personal Weather Station
Location: Soddy Daisy, TN
Elevation: 764 ft
Nearby Weather Stations

Elev 764 ft 35.33 °N, 85.08 °W | Updated 19 seconds ago

Mostly Cloudy
Mostly Cloudy
39.8 °F
Feels Like 40 °F
N
0.0
Wind Variable Wind from NE
Gusts 2.0 mph

Today
High -- | Low -- °F
--% Chance of Precip.
Yesterday
High -- | Low -- °F
Precip. -- in
Pressure 30.14 in
Visibility 10.0 miles
Clouds Overcast 4900 ft
Windchill 40 °F
Dew Point 29 °F
Humidity 66%
Rainfall 0.00 in
Snow Depth Not available.
7:30 AM 6:19 PM
Waxing Crescent, 21% visible
METAR KRZR 121555Z AUTO 00000KT 10SM OVC049 02/M01 A3014 RMK A01
Pressure 30.14 in
Visibility 10.0 miles
Clouds Overcast 4900 ft
Windchill 40 °F
Dew Point 29 °F
Humidity 66%
Rainfall 0.00 in
Snow Depth Not available.
7:30 AM 6:19 PM
Waxing Crescent, 21% visible
METAR KRZR 121555Z AUTO 00000KT 10SM OVC049 02/M01 A3014 RMK A01

10-Day Weather Forecast

Almanac

Astronomy

Feb. 12, 2016 Rise Set
Actual Time
Civil Twilight
Nautical Twilight
Astronomical Twilight
Moon
Length of Visible Light
Length of Day
Tomorrow will be .
, % of the Moon is Illuminated

Today's Extremes

State Highs State Lows

Community

WunderPhotos

Upload Photos

1,892,345 photos uploaded!

WunderBlog® & News

Nearby

Air Quality

  Air Quality AQ Index Pollutant
Not available.

Snow Depth

Station Depth Elevation

Earthquake Activity

City Distance Mag. Time & Date
Minimum magnitude displayed is 2.5.

Coastal Water Temperatures

Place Temperature

Stations

Nearby Weather Stations

Station Location Temp. Windchill Dew Point Humidity Wind Precip. Elev Updated Type
                   

Watches & Warnings

There are currently no watches in effect.